sensor_id;sensor_type;location;lat;lon;timestamp;pressure;altitude;pressure_sealevel;temperature;humidity
31717;BME280;18301;51.076;17.046;2023-03-12T00:01:19;99610.31;;;0.80;75.92
31717;BME280;18301;51.076;17.046;2023-03-12T00:06:21;99602.56;;;1.13;75.36
31717;BME280;18301;51.076;17.046;2023-03-12T00:11:22;99598.91;;;1.15;74.90
31717;BME280;18301;51.076;17.046;2023-03-12T00:16:26;99595.31;;;1.17;75.07
31717;BME280;18301;51.076;17.046;2023-03-12T00:21:28;99595.03;;;1.04;75.01
31717;BME280;18301;51.076;17.046;2023-03-12T00:26:30;99596.03;;;1.01;75.40
31717;BME280;18301;51.076;17.046;2023-03-12T00:31:32;99600.28;;;1.05;75.08
31717;BME280;18301;51.076;17.046;2023-03-12T00:36:33;99607.25;;;1.08;74.78
31717;BME280;18301;51.076;17.046;2023-03-12T00:41:35;99600.63;;;1.17;74.60
31717;BME280;18301;51.076;17.046;2023-03-12T00:46:36;99597.78;;;1.02;74.65
31717;BME280;18301;51.076;17.046;2023-03-12T00:51:38;99595.41;;;0.96;74.41
31717;BME280;18301;51.076;17.046;2023-03-12T00:56:39;99596.47;;;0.92;74.25
31717;BME280;18301;51.076;17.046;2023-03-12T01:01:41;99602.06;;;0.86;74.46
31717;BME280;18301;51.076;17.046;2023-03-12T01:06:43;99605.09;;;0.97;74.32
31717;BME280;18301;51.076;17.046;2023-03-12T01:11:45;99604.38;;;0.94;74.46
31717;BME280;18301;51.076;17.046;2023-03-12T01:16:46;99607.69;;;0.99;74.40
31717;BME280;18301;51.076;17.046;2023-03-12T01:21:48;99610.97;;;0.85;74.52
31717;BME280;18301;51.076;17.046;2023-03-12T01:26:49;99607.84;;;0.96;74.48
31717;BME280;18301;51.076;17.046;2023-03-12T01:31:51;99604.81;;;1.03;73.55
31717;BME280;18301;51.076;17.046;2023-03-12T01:36:53;99595.75;;;0.88;73.67
31717;BME280;18301;51.076;17.046;2023-03-12T01:41:55;99590.88;;;0.98;73.61
31717;BME280;18301;51.076;17.046;2023-03-12T01:46:57;99590.44;;;0.88;73.46
31717;BME280;18301;51.076;17.046;2023-03-12T01:52:06;99599.63;;;1.00;73.06
31717;BME280;18301;51.076;17.046;2023-03-12T01:57:14;99591.31;;;0.89;73.26
31717;BME280;18301;51.076;17.046;2023-03-12T02:02:16;99609.28;;;0.84;73.05
31717;BME280;18301;51.076;17.046;2023-03-12T02:07:20;99610.69;;;0.91;73.00
31717;BME280;18301;51.076;17.046;2023-03-12T02:12:21;99614.16;;;0.93;72.82
31717;BME280;18301;51.076;17.046;2023-03-12T02:17:23;99612.66;;;0.87;72.33
31717;BME280;18301;51.076;17.046;2023-03-12T02:22:24;99610.22;;;1.02;72.18
31717;BME280;18301;51.076;17.046;2023-03-12T02:27:26;99616.72;;;0.95;71.53
31717;BME280;18301;51.076;17.046;2023-03-12T02:32:32;99613.28;;;1.11;71.01
31717;BME280;18301;51.076;17.046;2023-03-12T02:37:35;99617.59;;;0.95;70.83
31717;BME280;18301;51.076;17.046;2023-03-12T02:42:37;99635.41;;;0.93;70.82
31717;BME280;18301;51.076;17.046;2023-03-12T02:47:38;99633.03;;;0.87;70.23
31717;BME280;18301;51.076;17.046;2023-03-12T02:52:40;99622.13;;;1.12;70.05
31717;BME280;18301;51.076;17.046;2023-03-12T02:57:41;99630.66;;;1.00;69.94
31717;BME280;18301;51.076;17.046;2023-03-12T03:02:44;99634.31;;;0.97;69.59
31717;BME280;18301;51.076;17.046;2023-03-12T03:07:45;99637.78;;;0.99;69.23
31717;BME280;18301;51.076;17.046;2023-03-12T03:12:46;99631.94;;;0.91;69.14
31717;BME280;18301;51.076;17.046;2023-03-12T03:17:48;99649.31;;;0.98;69.15
31717;BME280;18301;51.076;17.046;2023-03-12T03:22:49;99656.09;;;1.05;69.76
31717;BME280;18301;51.076;17.046;2023-03-12T03:27:51;99657.22;;;1.00;69.57
31717;BME280;18301;51.076;17.046;2023-03-12T03:32:52;99663.25;;;1.03;69.43
31717;BME280;18301;51.076;17.046;2023-03-12T03:37:54;99675.44;;;1.07;69.84
31717;BME280;18301;51.076;17.046;2023-03-12T03:42:55;99676.78;;;1.18;69.18
31717;BME280;18301;51.076;17.046;2023-03-12T03:47:57;99677.41;;;1.23;69.23
31717;BME280;18301;51.076;17.046;2023-03-12T03:52:58;99676.19;;;1.11;69.56
31717;BME280;18301;51.076;17.046;2023-03-12T03:58:00;99677.75;;;0.96;69.22
31717;BME280;18301;51.076;17.046;2023-03-12T04:03:01;99686.22;;;1.04;69.20
31717;BME280;18301;51.076;17.046;2023-03-12T04:08:03;99679.72;;;0.93;69.22
31717;BME280;18301;51.076;17.046;2023-03-12T04:13:04;99686.66;;;0.95;68.76
31717;BME280;18301;51.076;17.046;2023-03-12T04:18:06;99698.16;;;0.96;67.19
31717;BME280;18301;51.076;17.046;2023-03-12T04:23:07;99694.28;;;1.03;68.01
31717;BME280;18301;51.076;17.046;2023-03-12T04:28:09;99702.13;;;1.25;67.55
31717;BME280;18301;51.076;17.046;2023-03-12T04:33:10;99702.78;;;1.30;67.58
31717;BME280;18301;51.076;17.046;2023-03-12T04:38:12;99716.63;;;1.36;67.59
31717;BME280;18301;51.076;17.046;2023-03-12T04:43:13;99715.06;;;1.51;66.73
31717;BME280;18301;51.076;17.046;2023-03-12T04:48:15;99720.81;;;1.42;66.64
31717;BME280;18301;51.076;17.046;2023-03-12T04:53:16;99724.88;;;1.49;66.26
31717;BME280;18301;51.076;17.046;2023-03-12T04:58:19;99732.34;;;1.41;67.05
31717;BME280;18301;51.076;17.046;2023-03-12T05:03:21;99741.03;;;1.45;66.77
31717;BME280;18301;51.076;17.046;2023-03-12T05:08:23;99735.38;;;1.52;66.35
31717;BME280;18301;51.076;17.046;2023-03-12T05:13:24;99740.56;;;1.36;65.39
31717;BME280;18301;51.076;17.046;2023-03-12T05:18:26;99747.31;;;1.44;65.31
31717;BME280;18301;51.076;17.046;2023-03-12T05:23:28;99749.59;;;1.32;65.74
31717;BME280;18301;51.076;17.046;2023-03-12T05:28:30;99756.63;;;1.14;64.79
31717;BME280;18301;51.076;17.046;2023-03-12T05:33:32;99753.03;;;1.34;64.29
31717;BME280;18301;51.076;17.046;2023-03-12T05:38:34;99757.78;;;1.28;64.94
31717;BME280;18301;51.076;17.046;2023-03-12T05:43:35;99752.03;;;1.37;64.67
31717;BME280;18301;51.076;17.046;2023-03-12T05:48:37;99757.78;;;1.28;64.38
31717;BME280;18301;51.076;17.046;2023-03-12T05:53:38;99766.78;;;1.44;64.75
31717;BME280;18301;51.076;17.046;2023-03-12T05:58:40;99780.28;;;1.40;63.98
31717;BME280;18301;51.076;17.046;2023-03-12T06:03:41;99788.75;;;1.48;64.71
31717;BME280;18301;51.076;17.046;2023-03-12T06:08:43;99776.84;;;1.56;63.91
31717;BME280;18301;51.076;17.046;2023-03-12T06:13:45;99792.38;;;1.66;63.83
31717;BME280;18301;51.076;17.046;2023-03-12T06:18:47;99809.25;;;1.83;63.53
31717;BME280;18301;51.076;17.046;2023-03-12T06:23:49;99806.25;;;1.91;62.04
31717;BME280;18301;51.076;17.046;2023-03-12T06:28:51;99803.31;;;2.15;62.87
31717;BME280;18301;51.076;17.046;2023-03-12T06:33:53;99819.50;;;2.29;62.32
31717;BME280;18301;51.076;17.046;2023-03-12T06:38:54;99820.00;;;2.37;61.83
31717;BME280;18301;51.076;17.046;2023-03-12T06:43:57;99811.38;;;2.49;62.19
31717;BME280;18301;51.076;17.046;2023-03-12T06:48:59;99820.84;;;2.38;61.84
31717;BME280;18301;51.076;17.046;2023-03-12T06:54:01;99825.56;;;2.85;60.64
31717;BME280;18301;51.076;17.046;2023-03-12T06:59:02;99835.53;;;2.81;60.98
31717;BME280;18301;51.076;17.046;2023-03-12T07:04:04;99828.16;;;2.86;61.25
31717;BME280;18301;51.076;17.046;2023-03-12T07:09:06;99841.41;;;2.88;60.57
31717;BME280;18301;51.076;17.046;2023-03-12T07:14:08;99849.94;;;2.77;60.19
31717;BME280;18301;51.076;17.046;2023-03-12T07:19:09;99851.97;;;3.07;61.19
31717;BME280;18301;51.076;17.046;2023-03-12T07:24:11;99860.38;;;3.50;60.04
31717;BME280;18301;51.076;17.046;2023-03-12T07:29:12;99869.50;;;3.45;59.73
31717;BME280;18301;51.076;17.046;2023-03-12T07:34:14;99868.75;;;3.92;58.31
31717;BME280;18301;51.076;17.046;2023-03-12T07:39:16;99876.63;;;3.78;58.73
31717;BME280;18301;51.076;17.046;2023-03-12T07:44:17;99879.19;;;3.64;58.45
31717;BME280;18301;51.076;17.046;2023-03-12T07:49:19;99878.53;;;3.76;60.24
31717;BME280;18301;51.076;17.046;2023-03-12T07:54:20;99872.19;;;3.95;59.59
31717;BME280;18301;51.076;17.046;2023-03-12T07:59:25;99876.47;;;3.81;57.54
31717;BME280;18301;51.076;17.046;2023-03-12T08:04:28;99872.56;;;4.20;58.94
31717;BME280;18301;51.076;17.046;2023-03-12T08:09:30;99879.78;;;4.18;58.19
31717;BME280;18301;51.076;17.046;2023-03-12T08:14:33;99887.38;;;4.10;57.46
31717;BME280;18301;51.076;17.046;2023-03-12T08:19:35;99894.59;;;4.08;57.14
31717;BME280;18301;51.076;17.046;2023-03-12T08:24:36;99901.41;;;3.98;59.13
31717;BME280;18301;51.076;17.046;2023-03-12T08:29:39;99895.28;;;4.27;58.37
31717;BME280;18301;51.076;17.046;2023-03-12T08:34:40;99902.56;;;4.25;58.25
31717;BME280;18301;51.076;17.046;2023-03-12T08:39:42;99910.78;;;4.05;59.06
31717;BME280;18301;51.076;17.046;2023-03-12T08:44:43;99900.28;;;4.18;58.91
31717;BME280;18301;51.076;17.046;2023-03-12T08:49:45;99907.66;;;3.97;58.99
31717;BME280;18301;51.076;17.046;2023-03-12T08:54:46;99905.81;;;4.30;58.73
31717;BME280;18301;51.076;17.046;2023-03-12T08:59:48;99913.69;;;4.00;58.35
31717;BME280;18301;51.076;17.046;2023-03-12T09:04:49;99919.81;;;3.69;59.84
31717;BME280;18301;51.076;17.046;2023-03-12T09:09:53;99905.81;;;4.62;58.94
31717;BME280;18301;51.076;17.046;2023-03-12T09:14:55;99913.63;;;4.81;58.95
31717;BME280;18301;51.076;17.046;2023-03-12T09:20:06;99904.84;;;5.09;59.04
31717;BME280;18301;51.076;17.046;2023-03-12T09:25:11;99918.66;;;5.31;57.41
31717;BME280;18301;51.076;17.046;2023-03-12T09:30:15;99905.91;;;5.51;57.34
31717;BME280;18301;51.076;17.046;2023-03-12T09:35:17;99910.69;;;5.16;57.18
31717;BME280;18301;51.076;17.046;2023-03-12T09:40:21;99897.38;;;5.30;58.03
31717;BME280;18301;51.076;17.046;2023-03-12T09:45:27;99910.50;;;5.49;57.13
31717;BME280;18301;51.076;17.046;2023-03-12T09:50:37;99897.13;;;5.63;57.78
31717;BME280;18301;51.076;17.046;2023-03-12T09:55:43;99905.72;;;5.54;57.02
31717;BME280;18301;51.076;17.046;2023-03-12T10:00:45;99910.19;;;5.98;54.74
31717;BME280;18301;51.076;17.046;2023-03-12T10:11:08;99875.34;;;6.12;56.28
31717;BME280;18301;51.076;17.046;2023-03-12T10:21:50;99886.41;;;6.35;55.34
31717;BME280;18301;51.076;17.046;2023-03-12T10:26:56;99899.09;;;6.45;54.35
31717;BME280;18301;51.076;17.046;2023-03-12T10:32:06;99898.22;;;6.59;53.83
31717;BME280;18301;51.076;17.046;2023-03-12T10:37:30;99911.28;;;6.37;54.84
31717;BME280;18301;51.076;17.046;2023-03-12T10:42:35;99907.25;;;6.98;53.40
31717;BME280;18301;51.076;17.046;2023-03-12T10:47:40;99901.22;;;6.82;54.52
31717;BME280;18301;51.076;17.046;2023-03-12T10:52:46;99907.22;;;6.85;52.93
31717;BME280;18301;51.076;17.046;2023-03-12T10:57:49;99910.88;;;6.84;53.49
31717;BME280;18301;51.076;17.046;2023-03-12T11:03:02;99898.06;;;7.02;53.42
31717;BME280;18301;51.076;17.046;2023-03-12T11:08:19;99887.03;;;6.80;51.16
31717;BME280;18301;51.076;17.046;2023-03-12T11:13:38;99890.84;;;6.63;53.05
31717;BME280;18301;51.076;17.046;2023-03-12T11:29:02;99896.00;;;6.66;52.48
31717;BME280;18301;51.076;17.046;2023-03-12T11:34:07;99877.31;;;6.64;53.16
31717;BME280;18301;51.076;17.046;2023-03-12T11:44:58;99879.19;;;7.17;51.68
31717;BME280;18301;51.076;17.046;2023-03-12T11:55:41;99869.22;;;6.79;50.07
31717;BME280;18301;51.076;17.046;2023-03-12T12:06:04;99856.19;;;6.87;51.27
31717;BME280;18301;51.076;17.046;2023-03-12T12:16:48;99860.97;;;7.22;49.54
31717;BME280;18301;51.076;17.046;2023-03-12T12:27:27;99856.78;;;7.18;48.06
31717;BME280;18301;51.076;17.046;2023-03-12T12:37:58;99847.47;;;7.36;47.47
31717;BME280;18301;51.076;17.046;2023-03-12T12:43:21;99835.19;;;7.83;48.36
31717;BME280;18301;51.076;17.046;2023-03-12T12:48:28;99846.06;;;7.30;48.03
31717;BME280;18301;51.076;17.046;2023-03-12T12:59:01;99833.28;;;7.34;50.15
31717;BME280;18301;51.076;17.046;2023-03-12T13:04:10;99837.38;;;7.52;49.87
31717;BME280;18301;51.076;17.046;2023-03-12T13:09:15;99830.47;;;7.35;49.99
31717;BME280;18301;51.076;17.046;2023-03-12T13:14:34;99828.53;;;7.89;49.18
31717;BME280;18301;51.076;17.046;2023-03-12T13:19:39;99817.34;;;7.95;50.74
31717;BME280;18301;51.076;17.046;2023-03-12T13:25:06;99821.34;;;8.26;49.58
31717;BME280;18301;51.076;17.046;2023-03-12T13:35:37;99796.31;;;7.76;48.45
31717;BME280;18301;51.076;17.046;2023-03-12T13:45:58;99818.03;;;7.73;49.28
31717;BME280;18301;51.076;17.046;2023-03-12T13:51:19;99818.19;;;7.95;49.56
31717;BME280;18301;51.076;17.046;2023-03-12T13:56:30;99823.94;;;8.15;48.52
31717;BME280;18301;51.076;17.046;2023-03-12T14:01:36;99816.16;;;7.86;49.24
31717;BME280;18301;51.076;17.046;2023-03-12T14:12:16;99814.75;;;7.93;48.37
31717;BME280;18301;51.076;17.046;2023-03-12T14:17:25;99811.13;;;7.69;48.94
31717;BME280;18301;51.076;17.046;2023-03-12T14:22:31;99804.06;;;7.68;50.23
31717;BME280;18301;51.076;17.046;2023-03-12T14:27:34;99793.09;;;7.71;49.49
31717;BME280;18301;51.076;17.046;2023-03-12T14:32:36;99796.44;;;7.61;50.10
31717;BME280;18301;51.076;17.046;2023-03-12T14:37:54;99809.44;;;7.42;51.27
31717;BME280;18301;51.076;17.046;2023-03-12T14:43:00;99803.53;;;7.37;50.44
31717;BME280;18301;51.076;17.046;2023-03-12T14:48:01;99791.94;;;7.24;50.43
31717;BME280;18301;51.076;17.046;2023-03-12T14:53:18;99796.53;;;6.96;50.93
31717;BME280;18301;51.076;17.046;2023-03-12T14:58:20;99797.47;;;6.95;52.11
31717;BME280;18301;51.076;17.046;2023-03-12T15:03:22;99787.31;;;7.00;51.82
31717;BME280;18301;51.076;17.046;2023-03-12T15:08:24;99767.56;;;7.01;52.61
31717;BME280;18301;51.076;17.046;2023-03-12T15:13:26;99766.34;;;6.80;51.61
31717;BME280;18301;51.076;17.046;2023-03-12T15:18:29;99779.13;;;6.89;49.75
31717;BME280;18301;51.076;17.046;2023-03-12T15:23:33;99773.03;;;6.87;50.41
31717;BME280;18301;51.076;17.046;2023-03-12T15:28:37;99785.66;;;6.72;49.66
31717;BME280;18301;51.076;17.046;2023-03-12T15:33:40;99764.81;;;6.50;49.39
31717;BME280;18301;51.076;17.046;2023-03-12T15:38:48;99770.41;;;6.33;45.79
31717;BME280;18301;51.076;17.046;2023-03-12T15:43:53;99759.91;;;6.30;46.58
31717;BME280;18301;51.076;17.046;2023-03-12T15:48:57;99775.09;;;6.16;45.19
31717;BME280;18301;51.076;17.046;2023-03-12T15:54:23;99783.75;;;5.93;47.39
31717;BME280;18301;51.076;17.046;2023-03-12T15:59:26;99774.75;;;5.80;47.55
31717;BME280;18301;51.076;17.046;2023-03-12T16:04:28;99748.13;;;5.91;46.25
31717;BME280;18301;51.076;17.046;2023-03-12T16:09:32;99724.34;;;5.86;46.93
31717;BME280;18301;51.076;17.046;2023-03-12T16:14:34;99715.47;;;5.71;48.12
31717;BME280;18301;51.076;17.046;2023-03-12T16:19:37;99722.91;;;5.81;49.19
31717;BME280;18301;51.076;17.046;2023-03-12T16:24:38;99746.63;;;5.72;49.89
31717;BME280;18301;51.076;17.046;2023-03-12T16:29:40;99712.13;;;5.82;50.22
31717;BME280;18301;51.076;17.046;2023-03-12T16:34:42;99715.94;;;5.78;49.52
31717;BME280;18301;51.076;17.046;2023-03-12T16:39:45;99706.09;;;5.78;50.80
31717;BME280;18301;51.076;17.046;2023-03-12T16:44:48;99709.72;;;5.77;51.12
31717;BME280;18301;51.076;17.046;2023-03-12T16:49:50;99691.75;;;5.80;51.15
31717;BME280;18301;51.076;17.046;2023-03-12T16:54:51;99715.47;;;5.71;52.19
31717;BME280;18301;51.076;17.046;2023-03-12T16:59:53;99727.31;;;5.82;52.38
31717;BME280;18301;51.076;17.046;2023-03-12T17:04:55;99722.50;;;5.87;52.82
31717;BME280;18301;51.076;17.046;2023-03-12T17:09:56;99712.97;;;5.83;53.86
31717;BME280;18301;51.076;17.046;2023-03-12T17:14:59;99727.94;;;5.58;54.74
31717;BME280;18301;51.076;17.046;2023-03-12T17:20:02;99726.91;;;5.46;55.57
31717;BME280;18301;51.076;17.046;2023-03-12T17:25:22;99721.63;;;5.45;56.02
31717;BME280;18301;51.076;17.046;2023-03-12T17:30:25;99726.03;;;5.46;56.71
31717;BME280;18301;51.076;17.046;2023-03-12T17:35:27;99722.94;;;5.66;56.00
31717;BME280;18301;51.076;17.046;2023-03-12T17:40:29;99719.72;;;5.61;56.80
31717;BME280;18301;51.076;17.046;2023-03-12T17:45:30;99730.41;;;5.61;57.18
31717;BME280;18301;51.076;17.046;2023-03-12T17:50:32;99738.66;;;5.44;57.92
31717;BME280;18301;51.076;17.046;2023-03-12T17:55:35;99739.44;;;5.46;58.82
31717;BME280;18301;51.076;17.046;2023-03-12T18:00:36;99729.84;;;5.42;57.68
31717;BME280;18301;51.076;17.046;2023-03-12T18:05:38;99724.31;;;5.45;58.24
31717;BME280;18301;51.076;17.046;2023-03-12T18:10:43;99713.41;;;5.48;58.48
31717;BME280;18301;51.076;17.046;2023-03-12T18:15:51;99694.59;;;5.49;58.57
31717;BME280;18301;51.076;17.046;2023-03-12T18:20:53;99694.31;;;5.40;58.86
31717;BME280;18301;51.076;17.046;2023-03-12T18:25:55;99696.63;;;5.31;59.30
31717;BME280;18301;51.076;17.046;2023-03-12T18:30:56;99698.13;;;5.36;59.53
31717;BME280;18301;51.076;17.046;2023-03-12T18:35:57;99702.25;;;5.41;59.28
31717;BME280;18301;51.076;17.046;2023-03-12T18:41:04;99694.03;;;5.44;59.13
31717;BME280;18301;51.076;17.046;2023-03-12T18:46:07;99687.03;;;5.56;59.10
31717;BME280;18301;51.076;17.046;2023-03-12T18:51:09;99678.19;;;5.68;58.92
31717;BME280;18301;51.076;17.046;2023-03-12T18:56:11;99667.91;;;5.62;58.90
31717;BME280;18301;51.076;17.046;2023-03-12T19:01:12;99660.22;;;5.70;59.30
31717;BME280;18301;51.076;17.046;2023-03-12T19:06:15;99641.81;;;5.78;59.81
31717;BME280;18301;51.076;17.046;2023-03-12T19:11:17;99628.31;;;5.67;59.62
31717;BME280;18301;51.076;17.046;2023-03-12T19:16:19;99634.06;;;5.61;59.79
31717;BME280;18301;51.076;17.046;2023-03-12T19:21:24;99633.88;;;5.64;59.75
31717;BME280;18301;51.076;17.046;2023-03-12T19:26:25;99639.72;;;5.57;60.07
31717;BME280;18301;51.076;17.046;2023-03-12T19:31:27;99637.34;;;5.52;59.94
31717;BME280;18301;51.076;17.046;2023-03-12T19:36:28;99620.56;;;5.63;59.63
31717;BME280;18301;51.076;17.046;2023-03-12T19:41:30;99610.72;;;5.63;59.78
31717;BME280;18301;51.076;17.046;2023-03-12T19:46:31;99610.66;;;5.50;60.14
31717;BME280;18301;51.076;17.046;2023-03-12T19:51:33;99609.25;;;5.45;60.71
31717;BME280;18301;51.076;17.046;2023-03-12T19:56:34;99607.72;;;5.55;60.29
31717;BME280;18301;51.076;17.046;2023-03-12T20:01:36;99602.75;;;5.49;60.72
31717;BME280;18301;51.076;17.046;2023-03-12T20:06:38;99607.91;;;5.52;60.60
31717;BME280;18301;51.076;17.046;2023-03-12T20:11:39;99615.16;;;5.50;61.58
31717;BME280;18301;51.076;17.046;2023-03-12T20:16:41;99611.31;;;5.54;61.26
31717;BME280;18301;51.076;17.046;2023-03-12T20:21:43;99613.09;;;5.68;61.09
31717;BME280;18301;51.076;17.046;2023-03-12T20:26:44;99608.53;;;5.70;61.49
31717;BME280;18301;51.076;17.046;2023-03-12T20:31:46;99616.69;;;5.81;61.41
31717;BME280;18301;51.076;17.046;2023-03-12T20:36:47;99620.41;;;5.78;62.12
31717;BME280;18301;51.076;17.046;2023-03-12T20:41:49;99620.81;;;5.72;62.25
31717;BME280;18301;51.076;17.046;2023-03-12T20:46:50;99615.88;;;5.66;62.45
31717;BME280;18301;51.076;17.046;2023-03-12T20:51:52;99623.38;;;5.61;63.30
31717;BME280;18301;51.076;17.046;2023-03-12T20:56:53;99622.03;;;5.54;63.99
31717;BME280;18301;51.076;17.046;2023-03-12T21:01:55;99615.88;;;5.66;64.30
31717;BME280;18301;51.076;17.046;2023-03-12T21:06:56;99622.34;;;5.76;65.04
31717;BME280;18301;51.076;17.046;2023-03-12T21:11:58;99604.56;;;5.75;65.93
31717;BME280;18301;51.076;17.046;2023-03-12T21:16:59;99600.38;;;5.71;67.50
31717;BME280;18301;51.076;17.046;2023-03-12T21:22:01;99600.94;;;5.76;67.90
31717;BME280;18301;51.076;17.046;2023-03-12T21:27:03;99610.03;;;5.74;68.03
31717;BME280;18301;51.076;17.046;2023-03-12T21:32:04;99599.16;;;5.63;68.86
31717;BME280;18301;51.076;17.046;2023-03-12T21:37:06;99591.03;;;5.64;70.12
31717;BME280;18301;51.076;17.046;2023-03-12T21:42:07;99585.28;;;5.70;70.72
31717;BME280;18301;51.076;17.046;2023-03-12T21:47:09;99577.25;;;5.70;70.54
31717;BME280;18301;51.076;17.046;2023-03-12T21:52:11;99584.88;;;5.76;70.96
31717;BME280;18301;51.076;17.046;2023-03-12T21:57:12;99585.41;;;5.82;71.30
31717;BME280;18301;51.076;17.046;2023-03-12T22:02:14;99589.09;;;5.66;72.04
31717;BME280;18301;51.076;17.046;2023-03-12T22:07:15;99575.25;;;5.87;71.94
31717;BME280;18301;51.076;17.046;2023-03-12T22:12:17;99579.84;;;5.85;71.96
31717;BME280;18301;51.076;17.046;2023-03-12T22:17:18;99572.00;;;5.82;72.05
31717;BME280;18301;51.076;17.046;2023-03-12T22:22:20;99564.44;;;5.88;72.85
31717;BME280;18301;51.076;17.046;2023-03-12T22:27:21;99557.75;;;5.95;72.36
31717;BME280;18301;51.076;17.046;2023-03-12T22:32:23;99550.59;;;5.82;74.36
31717;BME280;18301;51.076;17.046;2023-03-12T22:37:25;99554.03;;;5.84;73.35
31717;BME280;18301;51.076;17.046;2023-03-12T22:42:27;99548.47;;;5.87;73.39
31717;BME280;18301;51.076;17.046;2023-03-12T22:47:28;99540.66;;;5.84;73.16
31717;BME280;18301;51.076;17.046;2023-03-12T22:52:30;99536.06;;;5.86;73.65
31717;BME280;18301;51.076;17.046;2023-03-12T22:57:35;99525.34;;;5.86;73.86
31717;BME280;18301;51.076;17.046;2023-03-12T23:02:37;99539.47;;;5.88;74.22
31717;BME280;18301;51.076;17.046;2023-03-12T23:07:39;99529.91;;;5.98;74.00
31717;BME280;18301;51.076;17.046;2023-03-12T23:12:40;99522.59;;;6.00;75.03
31717;BME280;18301;51.076;17.046;2023-03-12T23:17:42;99505.47;;;6.03;74.21
31717;BME280;18301;51.076;17.046;2023-03-12T23:22:43;99508.56;;;6.09;74.73
31717;BME280;18301;51.076;17.046;2023-03-12T23:27:44;99500.00;;;6.04;74.78
31717;BME280;18301;51.076;17.046;2023-03-12T23:32:46;99488.31;;;6.05;75.31
31717;BME280;18301;51.076;17.046;2023-03-12T23:37:48;99485.09;;;6.00;76.65
31717;BME280;18301;51.076;17.046;2023-03-12T23:42:49;99473.31;;;6.15;75.37
31717;BME280;18301;51.076;17.046;2023-03-12T23:47:51;99477.38;;;6.34;75.51
31717;BME280;18301;51.076;17.046;2023-03-12T23:52:52;99472.88;;;6.47;74.57
31717;BME280;18301;51.076;17.046;2023-03-12T23:57:54;99484.75;;;6.43;75.71
